Huron — WDI5216 — position and weather

sailwx.info

Track history (hours):
 
Tides and Currents Weather Stations Pressure Air Temp Water Temp Dewpoint Dewpoint Depression Visibility Wind Speed Wind Dir Waves Ship Positions

Huron

Owner: MIFC SHIPPING LLC, Mackinac Island, MI. More information available from US FCC via Universal Licensing System and Coast Guard Vessel Documentation Center.

Last reported at 2018-Jun-01 04:50 UTC. Time now 2018-Jun-20 17:28 UTC.
Position N 45°23' W 085°36'.
Warning: this ship's position is 19 days out of date.

Length 29 m; draft 2.4 m.

Type: Passenger vessel. MMSI: 367706310.

Date/timePositionNaut miles runAvg speedWind from/ knotsBaromVisibWave heightAir tempDewpointWater temp
2018-Jun-01 04:50N 45°23' W 085°36'3 9.6
2018-Jun-01 04:30N 45°25' W 085°33'5 9.8
2018-Jun-01 04:00N 45°28' W 085°28'5 9.3
2018-Jun-01 03:30N 45°32' W 085°24'510.1
2018-Jun-01 03:00N 45°37' W 085°22'5 9.8
2018-Jun-01 02:30N 45°40' W 085°17'510.1
2018-Jun-01 02:00N 45°44' W 085°12'3 5.4
2018-Jun-01 01:30N 45°45' W 085°09'5 8.7
2018-Jun-01 00:58N 45°50' W 085°06'5 9.5
2018-Jun-01 00:29N 45°50' W 084°60'5 9.8
2018-Jun-01 00:00N 45°50' W 084°53'5 9.6
2018-May-31 23:30N 45°49' W 084°46'4 0.7
2018-May-31 18:02N 45°52' W 084°42'110.1
2018-May-31 17:54N 45°52' W 084°40'0 0.1
2018-May-31 14:54N 45°51' W 084°40'1 0.8
2018-May-31 13:08N 45°52' W 084°42'0 0.0
2018-May-30 14:08N 45°52' W 084°41'0 0.0
2018-May-29 17:30N 45°52' W 084°42'4 3.2
2018-May-29 16:16N 45°51' W 084°37'4 3.3
2018-May-29 15:06N 45°52' W 084°42'110.1
2018-May-29 14:59N 45°52' W 084°40'0 0.2
2018-May-29 12:53N 45°51' W 084°40'2 0.1
2018-May-28 14:37N 45°52' W 084°43'110.2
2018-May-28 14:30N 45°52' W 084°41'3 6.5
2018-May-28 14:00N 45°51' W 084°37'2 4.5
2018-May-28 13:30N 45°51' W 084°40'2 3.1
2018-May-28 12:49N 45°52' W 084°43'310.3
2018-May-28 12:29N 45°51' W 084°38'1 1.9
2018-May-28 12:00N 45°51' W 084°37'1 1.2
2018-May-28 11:30N 45°51' W 084°38'3 0.1
2018-May-26 18:07N 45°52' W 084°42'1 9.9
2018-May-26 18:00N 45°51' W 084°40'2 0.4
2018-May-26 13:23N 45°52' W 084°43'4 9.9
2018-May-26 13:00N 45°51' W 084°38'1 0.8
2018-May-26 12:07N 45°51' W 084°37'0 0.2
2018-May-26 12:00N 45°51' W 084°37'4 0.2
2018-May-25 17:32N 45°52' W 084°42'110.2
2018-May-25 17:27N 45°52' W 084°41'2 0.4
2018-May-25 13:09N 45°52' W 084°43'1 9.6
2018-May-25 13:00N 45°52' W 084°41'3 2.4
2018-May-25 11:39N 45°51' W 084°37'1 6.7
2018-May-25 11:30N 45°51' W 084°38'3 0.2
2018-May-24 17:39N 45°52' W 084°42'110.0
2018-May-24 17:31N 45°52' W 084°40'2 0.8
2018-May-24 14:55N 45°52' W 084°43'4 8.6
2018-May-24 14:24N 45°51' W 084°37'4 0.2
2018-May-23 17:24N 45°52' W 084°43'410.4
2018-May-23 16:59N 45°51' W 084°37'0 0.6
2018-May-23 16:23N 45°51' W 084°37'4 3.1
2018-May-23 14:56N 45°52' W 084°43'4 4.2
2018-May-23 13:51N 45°51' W 084°37'5 3.9
2018-May-23 12:41N 45°52' W 084°43'210.4
2018-May-23 12:30N 45°52' W 084°41'3 5.4
2018-May-23 12:00N 45°51' W 084°37'1 1.0
2018-May-23 11:28N 45°51' W 084°38'4 0.2
2018-May-22 17:02N 45°52' W 084°42'010.4
2018-May-22 16:59N 45°52' W 084°42'1 0.3
2018-May-22 14:36N 45°52' W 084°42'110.5
2018-May-22 14:29N 45°52' W 084°41'2 2.9
2018-May-22 13:44N 45°51' W 084°38'4 4.4
2018-May-22 12:51N 45°52' W 084°43'310.2
2018-May-22 12:30N 45°51' W 084°39'1 2.0
2018-May-22 11:57N 45°51' W 084°37'1 1.4
2018-May-22 11:25N 45°51' W 084°38'  
Track history (hours):
 
Tides and Currents Weather Stations Pressure Air Temp Water Temp Dewpoint Dewpoint Depression Visibility Wind Speed Wind Dir Waves Ship Positions

Huron

Owner: MIFC SHIPPING LLC, Mackinac Island, MI. More information available from US FCC via Universal Licensing System and Coast Guard Vessel Documentation Center.

Last reported at 2018-Jun-01 04:50 UTC. Time now 2018-Jun-20 17:28 UTC.
Position N 45°23' W 085°36'.
Warning: this ship's position is 19 days out of date.

Length 29 m; draft 2.4 m.

Type: Passenger vessel. MMSI: 367706310.

Date/timePositionNaut miles runAvg speedWind from/ knotsBaromVisibWave heightAir tempDewpointWater temp
2018-Jun-01 04:50N 45°23' W 085°36'3 9.6
2018-Jun-01 04:30N 45°25' W 085°33'5 9.8
2018-Jun-01 04:00N 45°28' W 085°28'5 9.3
2018-Jun-01 03:30N 45°32' W 085°24'510.1
2018-Jun-01 03:00N 45°37' W 085°22'5 9.8
2018-Jun-01 02:30N 45°40' W 085°17'510.1
2018-Jun-01 02:00N 45°44' W 085°12'3 5.4
2018-Jun-01 01:30N 45°45' W 085°09'5 8.7
2018-Jun-01 00:58N 45°50' W 085°06'5 9.5
2018-Jun-01 00:29N 45°50' W 084°60'5 9.8
2018-Jun-01 00:00N 45°50' W 084°53'5 9.6
2018-May-31 23:30N 45°49' W 084°46'4 0.7
2018-May-31 18:02N 45°52' W 084°42'110.1
2018-May-31 17:54N 45°52' W 084°40'0 0.1
2018-May-31 14:54N 45°51' W 084°40'1 0.8
2018-May-31 13:08N 45°52' W 084°42'0 0.0
2018-May-30 14:08N 45°52' W 084°41'0 0.0
2018-May-29 17:30N 45°52' W 084°42'4 3.2
2018-May-29 16:16N 45°51' W 084°37'4 3.3
2018-May-29 15:06N 45°52' W 084°42'110.1
2018-May-29 14:59N 45°52' W 084°40'0 0.2
2018-May-29 12:53N 45°51' W 084°40'2 0.1
2018-May-28 14:37N 45°52' W 084°43'110.2
2018-May-28 14:30N 45°52' W 084°41'3 6.5
2018-May-28 14:00N 45°51' W 084°37'2 4.5
2018-May-28 13:30N 45°51' W 084°40'2 3.1
2018-May-28 12:49N 45°52' W 084°43'310.3
2018-May-28 12:29N 45°51' W 084°38'1 1.9
2018-May-28 12:00N 45°51' W 084°37'1 1.2
2018-May-28 11:30N 45°51' W 084°38'3 0.1
2018-May-26 18:07N 45°52' W 084°42'1 9.9
2018-May-26 18:00N 45°51' W 084°40'2 0.4
2018-May-26 13:23N 45°52' W 084°43'4 9.9
2018-May-26 13:00N 45°51' W 084°38'1 0.8
2018-May-26 12:07N 45°51' W 084°37'0 0.2
2018-May-26 12:00N 45°51' W 084°37'4 0.2
2018-May-25 17:32N 45°52' W 084°42'110.2
2018-May-25 17:27N 45°52' W 084°41'2 0.4
2018-May-25 13:09N 45°52' W 084°43'1 9.6
2018-May-25 13:00N 45°52' W 084°41'3 2.4
2018-May-25 11:39N 45°51' W 084°37'1 6.7
2018-May-25 11:30N 45°51' W 084°38'3 0.2
2018-May-24 17:39N 45°52' W 084°42'110.0
2018-May-24 17:31N 45°52' W 084°40'2 0.8
2018-May-24 14:55N 45°52' W 084°43'4 8.6
2018-May-24 14:24N 45°51' W 084°37'4 0.2
2018-May-23 17:24N 45°52' W 084°43'410.4
2018-May-23 16:59N 45°51' W 084°37'0 0.6
2018-May-23 16:23N 45°51' W 084°37'4 3.1
2018-May-23 14:56N 45°52' W 084°43'4 4.2
2018-May-23 13:51N 45°51' W 084°37'5 3.9
2018-May-23 12:41N 45°52' W 084°43'210.4
2018-May-23 12:30N 45°52' W 084°41'3 5.4
2018-May-23 12:00N 45°51' W 084°37'1 1.0
2018-May-23 11:28N 45°51' W 084°38'4 0.2
2018-May-22 17:02N 45°52' W 084°42'010.4
2018-May-22 16:59N 45°52' W 084°42'1 0.3
2018-May-22 14:36N 45°52' W 084°42'110.5
2018-May-22 14:29N 45°52' W 084°41'2 2.9
2018-May-22 13:44N 45°51' W 084°38'4 4.4
2018-May-22 12:51N 45°52' W 084°43'310.2
2018-May-22 12:30N 45°51' W 084°39'1 2.0
2018-May-22 11:57N 45°51' W 084°37'1 1.4
2018-May-22 11:25N 45°51' W 084°38'  

Dump ship's entire track history